Terminal Aerodrome Forecast
Issued by NWS Upton, NY

Home | Current Version | Previous Version | Text Only | Print | Product List | Glossary On
Versions: 1 2 3 4 5 6 7 8 9 10 11 12 13 14 15 16 17 18 19 20 21 22 23 24 25 26 27 28 29 30 31 32 33 34 35 36 37 38 39
311
FTUS41 KOKX 211405 AAB
TAFLGA
TAF AMD
KLGA 211405Z 2114/2212 24006KT P6SM BKN015 BKN080
      TEMPO 2114/2116 SCT015 BKN080
     FM211600 25006KT P6SM BKN020
     FM211800 24008KT P6SM BKN025
     FM220000 24004KT 5SM BR BKN012 OVC020
      TEMPO 2203/2206 2SM BR OVC012
     FM220600 21003KT 1SM BR OVC004=

USA.gov is the U.S. government's official web portal to all federal, state and local government web resources and services.